createdAt,value
2019-03-25T00:00:47.218Z,0.00
2019-03-25T00:02:19.033Z,0.00
2019-03-25T00:03:50.848Z,0.00
2019-03-25T00:05:22.662Z,0.00
2019-03-25T00:06:54.477Z,0.00
2019-03-25T00:08:26.309Z,0.00
2019-03-25T00:09:58.112Z,0.00
2019-03-25T00:11:29.924Z,0.00
2019-03-25T01:21:53.537Z,0.00
2019-03-25T01:23:25.200Z,0.00
2019-03-25T01:25:01.805Z,0.00
2019-03-25T01:26:28.829Z,0.00
2019-03-25T01:28:00.642Z,0.00
2019-03-25T01:29:32.456Z,0.00
2019-03-25T01:31:04.271Z,0.00
2019-03-25T01:32:36.086Z,0.00
2019-03-25T01:34:07.900Z,0.00
2019-03-25T01:35:39.719Z,0.00
2019-03-25T01:37:11.528Z,0.00
2019-03-25T01:38:43.342Z,0.00
2019-03-25T01:40:15.507Z,0.00
2019-03-25T01:41:46.971Z,0.00
2019-03-25T01:43:18.784Z,0.00
2019-03-25T01:44:50.600Z,0.00
2019-03-25T01:46:22.413Z,0.00
2019-03-25T01:47:54.229Z,0.00
2019-03-25T01:49:26.041Z,0.00
2019-03-25T01:50:57.855Z,0.00
2019-03-25T01:52:29.669Z,0.00
2019-03-25T01:54:01.483Z,0.00
2019-03-25T01:55:33.297Z,0.00
2019-03-25T01:57:05.111Z,0.00
2019-03-25T01:58:37.025Z,0.00
2019-03-25T02:00:08.742Z,0.00
2019-03-25T02:01:40.553Z,0.00
2019-03-25T02:03:12.368Z,0.00
2019-03-25T02:04:44.188Z,0.00
2019-03-25T02:06:15.995Z,0.00
2019-03-25T02:07:47.809Z,0.00
2019-03-25T02:09:19.624Z,0.00
2019-03-25T02:10:51.437Z,0.00
2019-03-25T02:12:23.251Z,0.00
2019-03-25T02:13:55.064Z,0.00
2019-03-25T02:15:26.877Z,0.00
2019-03-25T02:16:58.804Z,0.00
2019-03-25T02:18:30.506Z,0.00
2019-03-25T02:20:02.320Z,0.00
2019-03-25T02:21:34.134Z,0.00
2019-03-25T02:23:06.125Z,0.00
2019-03-25T02:24:37.765Z,0.00
2019-03-25T02:26:09.575Z,0.00
2019-03-25T02:27:41.389Z,0.00
2019-03-25T02:29:13.204Z,0.00
2019-03-25T02:30:45.018Z,0.00
2019-03-25T02:32:16.835Z,0.00
2019-03-25T02:33:48.646Z,0.00
2019-03-25T02:35:20.559Z,0.00
2019-03-25T02:36:52.277Z,0.00
2019-03-25T02:38:24.102Z,0.00
2019-03-25T02:39:55.907Z,0.00
2019-03-25T02:41:27.736Z,0.00
2019-03-25T02:42:59.526Z,0.00
2019-03-25T02:44:31.341Z,0.00
2019-03-25T02:46:03.155Z,0.00
2019-03-25T02:47:34.974Z,0.00
2019-03-25T02:49:06.781Z,0.00
2019-03-25T02:50:38.597Z,0.00
2019-03-25T02:52:10.411Z,0.00
2019-03-25T02:53:42.324Z,0.00
2019-03-25T02:55:14.038Z,0.00
2019-03-25T02:56:45.858Z,0.00
2019-03-25T02:58:17.685Z,0.00
2019-03-25T02:59:49.480Z,0.00
2019-03-25T03:01:21.298Z,0.00
2019-03-25T03:02:53.109Z,0.00
2019-03-25T03:04:24.923Z,0.00
2019-03-25T03:05:56.737Z,0.00
2019-03-25T03:07:28.551Z,0.00
2019-03-25T03:09:00.364Z,0.00
2019-03-25T03:10:32.181Z,0.00
2019-03-25T03:12:04.093Z,0.00
2019-03-25T03:13:35.807Z,0.00
2019-03-25T03:15:07.621Z,0.00
2019-03-25T03:16:39.435Z,0.00
2019-03-25T03:18:11.249Z,0.00
2019-03-25T03:19:43.062Z,0.00
2019-03-25T03:21:14.879Z,0.00
2019-03-25T03:22:46.692Z,0.00
2019-03-25T03:25:57.044Z,0.00
2019-03-25T03:28:53.947Z,0.00
2019-03-25T03:30:25.761Z,0.00
2019-03-25T03:31:57.675Z,0.00
2019-03-25T03:33:29.390Z,0.00
2019-03-25T03:35:01.253Z,0.00
2019-03-25T03:36:33.021Z,0.00
2019-03-25T03:38:04.834Z,0.00
2019-03-25T03:39:36.645Z,0.00
2019-03-25T03:41:08.459Z,0.00
2019-03-25T03:42:40.273Z,0.00
2019-03-25T03:44:12.089Z,0.00
2019-03-25T03:45:43.906Z,0.00
2019-03-25T03:47:15.715Z,0.00
2019-03-25T03:48:47.529Z,0.00
2019-03-25T03:50:19.508Z,0.00
2019-03-25T03:51:51.156Z,0.00
2019-03-25T03:53:22.971Z,0.00
2019-03-25T03:54:54.787Z,0.00
2019-03-25T03:56:26.598Z,0.00
2019-03-25T03:57:58.449Z,0.00
2019-03-25T03:59:30.227Z,0.00
2019-03-25T04:01:02.042Z,0.00
2019-03-25T04:02:33.855Z,0.00
2019-03-25T04:04:05.675Z,0.00
2019-03-25T04:05:37.484Z,0.00
2019-03-25T04:07:09.305Z,0.00
2019-03-25T04:08:41.212Z,0.00
2019-03-25T04:10:12.925Z,0.00
2019-03-25T04:11:44.740Z,0.00
2019-03-25T04:13:16.561Z,0.00
2019-03-25T04:14:48.383Z,0.00
2019-03-25T04:16:20.184Z,0.00
2019-03-25T04:17:51.996Z,0.00
2019-03-25T04:19:23.812Z,0.00
2019-03-25T04:20:55.624Z,0.00
2019-03-25T04:22:27.438Z,0.00
2019-03-25T04:23:59.253Z,0.00
2019-03-25T04:25:31.072Z,0.00
2019-03-25T04:27:03.142Z,0.00
2019-03-25T04:28:34.696Z,0.00
2019-03-25T04:30:06.509Z,0.00
2019-03-25T04:31:38.325Z,0.00
2019-03-25T04:33:10.159Z,0.00
2019-03-25T04:34:41.951Z,0.00
2019-03-25T04:36:13.764Z,0.00
2019-03-25T04:37:45.581Z,0.00
2019-03-25T04:39:17.393Z,0.00
2019-03-25T04:40:49.214Z,0.00
2019-03-25T04:42:21.022Z,0.00
2019-03-25T04:43:54.496Z,0.00
2019-03-25T04:45:24.750Z,0.00
2019-03-25T04:46:56.462Z,0.00
2019-03-25T04:48:28.277Z,0.00
2019-03-25T04:50:00.090Z,0.00
2019-03-25T04:51:31.905Z,0.00
2019-03-25T04:53:03.719Z,0.00
2019-03-25T04:54:35.533Z,0.00
2019-03-25T04:56:07.346Z,0.00
2019-03-25T04:57:39.161Z,0.00
2019-03-25T04:59:10.975Z,0.00
2019-03-25T05:00:42.788Z,0.00
2019-03-25T05:02:14.607Z,0.00
2019-03-25T05:03:46.516Z,0.00
2019-03-25T05:05:18.231Z,0.00
2019-03-25T05:06:50.044Z,0.00
2019-03-25T05:08:21.881Z,0.00
2019-03-25T05:09:53.673Z,0.00
2019-03-25T05:11:30.513Z,0.00
2019-03-25T05:12:57.299Z,0.00
2019-03-25T05:14:29.112Z,0.00
2019-03-25T05:16:00.926Z,0.00
2019-03-25T05:17:32.740Z,0.00
2019-03-25T05:19:04.553Z,0.00
2019-03-25T05:20:36.372Z,0.00
2019-03-25T05:22:08.281Z,0.00
2019-03-25T05:23:39.994Z,0.00
2019-03-25T05:25:11.807Z,0.00
2019-03-25T05:26:51.099Z,0.00
2019-03-25T05:28:15.434Z,0.00
2019-03-25T05:29:47.249Z,0.00
2019-03-25T05:31:19.062Z,0.00
2019-03-25T05:32:50.876Z,0.00
2019-03-25T05:34:22.690Z,0.00
2019-03-25T05:35:54.504Z,0.00
2019-03-25T05:37:26.317Z,0.00
2019-03-25T05:38:58.131Z,0.00
2019-03-25T05:40:30.044Z,0.00
2019-03-25T05:42:01.760Z,0.00
2019-03-25T05:43:33.574Z,0.00
2019-03-25T05:45:05.385Z,0.00
2019-03-25T05:46:37.199Z,0.00
2019-03-25T05:48:09.017Z,0.00
2019-03-25T05:49:40.826Z,0.00
2019-03-25T05:51:12.636Z,0.00
2019-03-25T05:52:44.451Z,0.00
2019-03-25T05:54:16.273Z,0.00
2019-03-25T05:55:48.078Z,0.00
2019-03-25T05:57:19.889Z,0.00
2019-03-25T05:58:51.803Z,0.00
2019-03-25T06:00:23.517Z,0.00
2019-03-25T06:01:55.330Z,0.00
2019-03-25T06:03:27.143Z,0.00
2019-03-25T06:04:58.957Z,0.00
2019-03-25T06:06:30.770Z,0.00
2019-03-25T06:08:02.587Z,0.00
2019-03-25T06:09:34.399Z,0.00
2019-03-25T06:11:06.211Z,0.00
2019-03-25T06:12:38.026Z,0.00
2019-03-25T06:14:09.841Z,0.00
2019-03-25T06:15:41.651Z,0.00
2019-03-25T06:17:13.564Z,0.00
2019-03-25T06:18:45.278Z,0.00
2019-03-25T06:20:17.091Z,0.00
2019-03-25T06:21:48.904Z,0.00
2019-03-25T06:23:20.717Z,0.00
2019-03-25T06:24:52.531Z,0.00
2019-03-25T06:26:24.345Z,0.00
2019-03-25T06:27:56.158Z,0.00
2019-03-25T06:29:28.078Z,0.00
2019-03-25T06:30:59.784Z,0.00
2019-03-25T06:32:31.598Z,0.00
2019-03-25T06:34:03.411Z,0.00
2019-03-25T06:35:35.328Z,0.00
2019-03-25T06:37:07.039Z,0.00
2019-03-25T06:38:38.853Z,0.00
2019-03-25T06:40:10.664Z,0.00
2019-03-25T06:41:42.481Z,0.00
2019-03-25T06:43:14.292Z,0.00
2019-03-25T06:44:46.111Z,0.00
2019-03-25T06:46:17.918Z,0.00
2019-03-25T06:47:49.733Z,0.00
2019-03-25T06:49:21.546Z,0.00
2019-03-25T06:50:53.360Z,0.00
2019-03-25T06:52:25.173Z,0.00
2019-03-25T06:53:57.086Z,0.00
2019-03-25T06:55:28.799Z,0.00
2019-03-25T06:57:00.613Z,0.00
2019-03-25T06:58:32.427Z,0.00
2019-03-25T07:00:04.340Z,0.00
2019-03-25T07:01:36.054Z,0.00
2019-03-25T07:03:07.866Z,0.00
2019-03-25T07:04:39.681Z,0.00
2019-03-25T07:06:11.494Z,0.00
2019-03-25T07:07:43.307Z,0.00
2019-03-25T07:09:15.121Z,0.00
2019-03-25T07:10:46.937Z,0.00
2019-03-25T07:12:19.048Z,0.00
2019-03-25T07:13:50.561Z,0.00
2019-03-25T07:15:22.374Z,0.00
2019-03-25T07:16:54.188Z,0.00
2019-03-25T07:18:26.001Z,0.00
2019-03-25T07:19:57.814Z,0.00
2019-03-25T07:21:30.153Z,0.00
2019-03-25T07:23:01.442Z,0.00
2019-03-25T07:24:33.255Z,0.00
2019-03-25T07:26:05.068Z,0.00
2019-03-25T07:27:37.419Z,0.00
2019-03-25T07:29:08.695Z,0.00
2019-03-25T07:30:40.762Z,0.00
2019-03-25T07:32:12.323Z,0.00
2019-03-25T07:33:44.134Z,0.00
2019-03-25T07:35:15.951Z,0.00
2019-03-25T07:36:47.765Z,0.00
2019-03-25T07:38:19.581Z,0.00
2019-03-25T07:39:51.398Z,0.00
2019-03-25T07:41:23.205Z,0.00
2019-03-25T07:42:55.023Z,0.00
2019-03-25T07:44:26.835Z,0.00
2019-03-25T07:45:58.645Z,0.00
2019-03-25T07:47:30.458Z,0.00
2019-03-25T07:49:02.373Z,0.00
2019-03-25T07:50:34.087Z,0.00
2019-03-25T07:52:07.135Z,0.00
2019-03-25T07:53:37.760Z,0.00
2019-03-25T07:55:09.528Z,0.00
2019-03-25T07:56:41.363Z,0.00
2019-03-25T07:58:13.153Z,0.00
2019-03-25T07:59:44.998Z,0.00
2019-03-25T08:01:16.885Z,0.00
2019-03-25T08:02:48.598Z,0.00
2019-03-25T08:04:20.421Z,0.00
2019-03-25T08:05:52.225Z,0.00
2019-03-25T08:07:24.132Z,0.00
2019-03-25T08:09:03.832Z,0.00
2019-03-25T08:10:27.674Z,0.00
2019-03-25T08:11:59.507Z,0.00
2019-03-25T08:13:31.308Z,0.00
2019-03-25T08:15:03.098Z,0.00
2019-03-25T08:16:34.911Z,0.00
2019-03-25T08:18:06.726Z,0.00
2019-03-25T08:19:38.578Z,0.00
2019-03-25T08:21:10.351Z,0.00
2019-03-25T08:22:42.165Z,0.00
2019-03-25T08:24:13.978Z,0.00
2019-03-25T08:25:45.892Z,0.00
2019-03-25T08:27:17.605Z,0.00
2019-03-25T08:28:49.418Z,0.00
2019-03-25T08:30:21.231Z,0.00
2019-03-25T08:31:53.145Z,0.00
2019-03-25T08:33:24.858Z,0.00
2019-03-25T08:34:56.672Z,0.00
2019-03-25T08:36:28.484Z,0.00
2019-03-25T08:38:00.299Z,0.00
2019-03-25T08:39:32.111Z,0.00
2019-03-25T08:41:03.925Z,0.00
2019-03-25T08:42:35.738Z,0.00
2019-03-25T08:44:07.652Z,0.00
2019-03-25T08:45:39.365Z,0.00
2019-03-25T08:47:11.179Z,0.00
2019-03-25T08:48:43.049Z,0.00
2019-03-25T08:50:14.809Z,0.00
2019-03-25T08:51:46.618Z,0.00
2019-03-25T08:53:18.431Z,0.00
2019-03-25T08:54:50.246Z,0.00
2019-03-25T08:56:22.061Z,0.00
2019-03-25T08:57:53.871Z,0.00
2019-03-25T08:59:25.686Z,0.00
2019-03-25T09:00:57.501Z,0.00
2019-03-25T09:02:29.411Z,0.00
2019-03-25T09:04:01.124Z,0.00
2019-03-25T09:05:32.938Z,5.63
2019-03-25T09:07:04.751Z,5.63
2019-03-25T09:08:36.569Z,5.63
2019-03-25T09:10:08.381Z,11.25
2019-03-25T09:11:40.192Z,11.25
2019-03-25T09:13:12.005Z,16.88
2019-03-25T09:14:43.819Z,16.88
2019-03-25T09:16:15.632Z,22.50
2019-03-25T09:17:47.450Z,28.13
2019-03-25T09:19:19.263Z,33.75
2019-03-25T09:20:51.172Z,39.38
2019-03-25T09:22:22.886Z,45.00
2019-03-25T09:23:55.004Z,45.00
2019-03-25T09:25:26.513Z,50.63
2019-03-25T09:26:58.327Z,56.25
2019-03-25T09:28:30.140Z,56.25
2019-03-25T09:30:03.432Z,61.88
2019-03-25T09:31:36.990Z,67.50
2019-03-25T09:33:05.581Z,67.50
2019-03-25T09:34:37.400Z,73.13
2019-03-25T09:36:09.209Z,78.75
2019-03-25T09:37:41.029Z,78.75
2019-03-25T09:39:12.938Z,84.38
2019-03-25T09:40:44.651Z,84.38
2019-03-25T09:42:16.465Z,90.00
2019-03-25T09:43:48.290Z,101.25
2019-03-25T09:45:20.093Z,112.50
2019-03-25T09:46:51.907Z,118.13
2019-03-25T09:48:23.723Z,123.75
2019-03-25T09:49:55.538Z,135.00
2019-03-25T09:51:27.349Z,151.88
2019-03-25T09:52:59.165Z,151.88
2019-03-25T09:54:30.978Z,157.50
2019-03-25T09:57:34.913Z,174.38
2019-03-25T09:59:06.420Z,196.88
2019-03-25T10:00:38.234Z,219.38
2019-03-25T10:02:10.049Z,208.13
2019-03-25T10:03:41.863Z,230.63
2019-03-25T10:05:13.678Z,241.88
2019-03-25T10:06:45.492Z,191.25
2019-03-25T10:08:17.312Z,196.88
2019-03-25T10:09:49.122Z,213.75
2019-03-25T10:11:21.295Z,213.75
2019-03-25T10:12:53.029Z,236.25
2019-03-25T10:14:24.714Z,236.25
2019-03-25T10:15:56.550Z,247.50
2019-03-25T10:17:28.262Z,292.50
2019-03-25T10:19:00.011Z,326.25
2019-03-25T10:20:31.826Z,376.88
2019-03-25T10:22:03.750Z,320.63
2019-03-25T10:23:35.561Z,354.38
2019-03-25T10:25:07.433Z,331.88
2019-03-25T10:26:39.092Z,326.25
2019-03-25T10:28:11.008Z,326.25
2019-03-25T10:29:42.785Z,354.38
2019-03-25T10:31:17.230Z,376.88
2019-03-25T10:32:46.437Z,399.38
2019-03-25T10:34:18.327Z,461.25
2019-03-25T10:35:50.055Z,421.88
2019-03-25T10:37:21.824Z,472.50
2019-03-25T10:38:53.620Z,500.63
2019-03-25T10:40:25.435Z,450.00
2019-03-25T10:41:57.297Z,444.38
2019-03-25T10:43:29.264Z,461.25
2019-03-25T10:45:01.083Z,528.75
2019-03-25T10:48:04.521Z,444.38
2019-03-25T10:49:36.646Z,500.63
2019-03-25T10:51:08.275Z,450.00
2019-03-25T10:52:40.603Z,388.13
2019-03-25T10:54:11.901Z,382.50
2019-03-25T10:55:43.693Z,382.50
2019-03-25T10:57:15.580Z,405.00
2019-03-25T10:58:47.377Z,450.00
2019-03-25T11:00:19.108Z,438.75
2019-03-25T11:01:50.975Z,455.63
2019-03-25T11:03:22.920Z,450.00
2019-03-25T11:04:54.555Z,455.63
2019-03-25T11:06:26.400Z,466.88
2019-03-25T11:07:58.570Z,466.88
2019-03-25T11:09:30.094Z,466.88
2019-03-25T11:11:01.867Z,461.25
2019-03-25T11:12:33.732Z,500.63
2019-03-25T11:14:05.658Z,523.13
2019-03-25T11:15:37.276Z,534.38
2019-03-25T11:17:09.108Z,540.00
2019-03-25T11:18:40.971Z,545.63
2019-03-25T11:20:12.826Z,579.38
2019-03-25T11:21:44.679Z,568.13
2019-03-25T11:24:48.300Z,596.25
2019-03-25T11:26:20.031Z,596.25
2019-03-25T11:27:54.518Z,607.50
2019-03-25T11:29:23.692Z,630.00
2019-03-25T11:30:55.599Z,630.00
2019-03-25T11:32:27.324Z,630.00
2019-03-25T11:33:59.144Z,652.50
2019-03-25T11:35:31.031Z,663.75
2019-03-25T11:37:02.851Z,663.75
2019-03-25T11:38:34.623Z,675.00
2019-03-25T11:40:06.443Z,691.88
2019-03-25T11:41:38.262Z,691.88
2019-03-25T11:43:10.210Z,691.88
2019-03-25T11:44:41.933Z,697.50
2019-03-25T11:46:13.733Z,714.38
2019-03-25T11:47:45.553Z,731.25
2019-03-25T11:49:17.480Z,731.25
2019-03-25T11:50:49.204Z,759.38
2019-03-25T11:52:21.025Z,770.63
2019-03-25T11:53:53.583Z,793.13
2019-03-25T11:55:24.758Z,810.00
2019-03-25T11:56:57.011Z,826.88
2019-03-25T11:58:28.547Z,843.75
2019-03-25T12:00:01.641Z,860.63
2019-03-25T12:01:32.362Z,877.50
2019-03-25T12:03:05.180Z,911.25
2019-03-25T12:04:35.621Z,939.38
2019-03-25T12:06:07.445Z,945.00
2019-03-25T12:07:39.419Z,956.25
2019-03-25T12:09:11.202Z,950.63
2019-03-25T12:10:43.032Z,1001.25
2019-03-25T12:12:14.992Z,1057.50
2019-03-25T12:13:46.683Z,1046.25
2019-03-25T12:16:50.223Z,1080.00
2019-03-25T12:18:22.181Z,1130.63
2019-03-25T12:19:53.932Z,1125.00
2019-03-25T12:21:27.257Z,1158.75
2019-03-25T12:22:57.580Z,1203.75
2019-03-25T12:24:29.347Z,1198.13
2019-03-25T12:26:01.661Z,1192.50
2019-03-25T12:27:33.125Z,1175.63
2019-03-25T12:29:05.130Z,1198.13
2019-03-25T12:30:37.846Z,1209.38
2019-03-25T12:32:10.535Z,1226.25
2019-03-25T12:33:40.479Z,1271.25
2019-03-25T12:35:12.286Z,1282.50
2019-03-25T12:36:43.994Z,1299.38
2019-03-25T12:38:15.854Z,1327.50
2019-03-25T12:39:48.478Z,1361.25
2019-03-25T12:41:19.688Z,1383.75
2019-03-25T12:42:53.393Z,1344.38
2019-03-25T12:44:23.234Z,1456.88
2019-03-25T12:45:54.912Z,1423.13
2019-03-25T12:47:26.801Z,1473.75
2019-03-25T12:48:58.854Z,1462.50
2019-03-25T12:52:04.351Z,1518.75
2019-03-25T12:53:34.210Z,1580.63
2019-03-25T12:55:05.900Z,1580.63
2019-03-25T12:56:37.757Z,1631.25
2019-03-25T12:58:10.049Z,1620.00
2019-03-25T12:59:42.117Z,1687.50
2019-03-25T13:01:13.177Z,1603.13
2019-03-25T13:02:45.004Z,1681.88
2019-03-25T13:04:16.933Z,1710.00
2019-03-25T13:05:48.725Z,1738.13
2019-03-25T13:07:20.683Z,1749.38
2019-03-25T13:08:52.361Z,1749.38
2019-03-25T13:10:24.154Z,1698.75
2019-03-25T13:11:55.968Z,1794.38
2019-03-25T13:13:28.099Z,1749.38
2019-03-25T13:14:59.657Z,1816.88
2019-03-25T13:16:31.797Z,1850.63
2019-03-25T13:18:03.284Z,1800.00
2019-03-25T13:19:36.057Z,1828.13
2019-03-25T13:21:06.962Z,1833.75
2019-03-25T13:22:39.071Z,1805.63
2019-03-25T13:24:10.746Z,1935.00
2019-03-25T13:25:42.426Z,1940.63
2019-03-25T13:27:14.381Z,1878.75
2019-03-25T13:28:46.480Z,1895.63
2019-03-25T13:30:18.065Z,1929.38
2019-03-25T13:31:50.583Z,1923.75
2019-03-25T13:33:21.571Z,1935.00
2019-03-25T13:34:53.399Z,1918.13
2019-03-25T13:36:25.246Z,1985.63
2019-03-25T13:37:58.955Z,2002.50
2019-03-25T13:39:28.890Z,1884.38
2019-03-25T13:41:00.941Z,1935.00
2019-03-25T13:42:32.733Z,2115.00
2019-03-25T13:44:04.557Z,2075.63
2019-03-25T13:45:36.441Z,1991.25
2019-03-25T13:47:08.039Z,2171.25
2019-03-25T13:48:39.938Z,2328.75
2019-03-25T13:50:11.695Z,2131.88
2019-03-25T13:51:43.899Z,2278.13
2019-03-25T13:53:15.354Z,2295.00
2019-03-25T13:54:47.548Z,2255.63
2019-03-25T13:56:19.032Z,2323.13
2019-03-25T13:57:51.834Z,2176.88
2019-03-25T13:59:22.928Z,2210.63
2019-03-25T14:00:55.347Z,2351.25
2019-03-25T14:02:26.402Z,2373.75
2019-03-25T14:03:58.862Z,2373.75
2019-03-25T14:05:31.487Z,2441.25
2019-03-25T14:07:03.978Z,2553.75
2019-03-25T14:08:33.958Z,2593.13
2019-03-25T14:10:05.490Z,2570.63
2019-03-25T14:11:37.415Z,2581.88
2019-03-25T14:13:09.151Z,2553.75
2019-03-25T14:14:41.195Z,2559.38
2019-03-25T14:16:12.958Z,2632.50
2019-03-25T14:17:45.559Z,2581.88
2019-03-25T14:19:16.964Z,2548.13
2019-03-25T14:20:48.308Z,2722.50
2019-03-25T14:22:20.811Z,2733.75
2019-03-25T14:23:52.909Z,2587.50
2019-03-25T14:25:25.091Z,2632.50
2019-03-25T14:26:56.282Z,2671.88
2019-03-25T14:28:28.466Z,2739.38
2019-03-25T14:29:59.357Z,2694.38
2019-03-25T14:31:33.341Z,2851.88
2019-03-25T14:33:04.105Z,2750.63
2019-03-25T14:34:44.369Z,2778.75
2019-03-25T14:36:06.728Z,2773.13
2019-03-25T14:37:38.705Z,2790.00
2019-03-25T14:39:10.290Z,2700.00
2019-03-25T14:40:42.125Z,2790.00
2019-03-25T14:42:13.955Z,2778.75
2019-03-25T14:43:45.864Z,2621.25
2019-03-25T14:45:26.125Z,2823.75
2019-03-25T14:46:49.453Z,3088.13
2019-03-25T14:48:21.292Z,3116.25
2019-03-25T14:49:53.132Z,2970.00
2019-03-25T14:51:24.951Z,2739.38
2019-03-25T14:52:56.791Z,2964.38
2019-03-25T14:54:28.965Z,3121.88
2019-03-25T14:56:00.491Z,3166.88
2019-03-25T14:57:32.281Z,3133.13
2019-03-25T14:59:04.113Z,3048.75
2019-03-25T15:00:35.996Z,2930.63
2019-03-25T15:02:07.782Z,2992.50
2019-03-25T15:03:39.612Z,2874.38
2019-03-25T15:05:11.448Z,2857.50
2019-03-25T15:06:43.278Z,3195.00
2019-03-25T15:08:15.112Z,3060.00
2019-03-25T15:09:46.945Z,3346.88
2019-03-25T15:11:18.780Z,3363.75
2019-03-25T15:12:50.712Z,3234.38
2019-03-25T15:14:22.446Z,3465.00
2019-03-25T15:15:54.281Z,3628.13
2019-03-25T15:17:26.111Z,3521.25
2019-03-25T15:18:57.945Z,3476.25
2019-03-25T15:20:29.778Z,3622.50
2019-03-25T15:22:01.612Z,3532.50
2019-03-25T15:23:33.560Z,3577.50
2019-03-25T15:25:05.281Z,3667.50
2019-03-25T15:26:37.116Z,3650.63
2019-03-25T15:28:08.950Z,3712.50
2019-03-25T15:29:40.787Z,3785.63
2019-03-25T15:31:12.721Z,3898.13
2019-03-25T15:32:44.456Z,3650.63
2019-03-25T15:34:16.496Z,3622.50
2019-03-25T15:35:48.450Z,3543.75
2019-03-25T15:37:19.961Z,3763.13
2019-03-25T15:38:51.805Z,3093.75
2019-03-25T15:40:23.724Z,1417.50
2019-03-25T15:41:55.480Z,2655.00
2019-03-25T15:43:27.301Z,3391.88
2019-03-25T15:44:59.134Z,3577.50
2019-03-25T15:46:30.967Z,1490.63
2019-03-25T15:48:02.805Z,3521.25
2019-03-25T15:49:34.734Z,1468.13
2019-03-25T15:51:06.822Z,3442.50
2019-03-25T15:52:38.719Z,2728.13
2019-03-25T15:54:10.402Z,2581.88
2019-03-25T15:55:41.994Z,3673.13
2019-03-25T15:57:13.796Z,1991.25
2019-03-25T15:58:45.624Z,3487.50
2019-03-25T16:00:17.519Z,3442.50
2019-03-25T16:01:49.286Z,1732.50
2019-03-25T16:03:21.143Z,2851.88
2019-03-25T16:04:52.978Z,1333.13
2019-03-25T16:06:24.778Z,950.63
2019-03-25T16:07:56.832Z,911.25
2019-03-25T16:09:28.539Z,1006.88
2019-03-25T16:12:32.097Z,916.88
2019-03-25T16:14:03.924Z,984.38
2019-03-25T16:15:35.747Z,1231.88
2019-03-25T16:17:07.574Z,2154.38
2019-03-25T16:18:39.402Z,2688.75
2019-03-25T16:20:11.238Z,1209.38
2019-03-25T16:21:43.103Z,2053.13
2019-03-25T16:23:14.912Z,3166.88
2019-03-25T16:24:46.706Z,3510.00
2019-03-25T16:26:18.634Z,3549.38
2019-03-25T16:29:22.264Z,3645.00
2019-03-25T16:30:58.580Z,3718.13
2019-03-25T16:32:25.847Z,3740.63
2019-03-25T16:33:57.677Z,3796.88
2019-03-25T16:35:29.509Z,3701.25
2019-03-25T16:37:01.341Z,3892.50
2019-03-25T16:38:33.170Z,3588.75
2019-03-25T16:40:05.003Z,3808.13
2019-03-25T16:41:36.889Z,3757.50
2019-03-25T16:43:08.675Z,3706.88
2019-03-25T16:44:41.337Z,3622.50
2019-03-25T16:46:13.784Z,3796.88
2019-03-25T16:47:44.231Z,3796.88
2019-03-25T16:49:16.032Z,3712.50
2019-03-25T16:50:47.882Z,3571.88
2019-03-25T16:52:19.722Z,3459.38
2019-03-25T16:53:51.494Z,3751.88
2019-03-25T16:55:23.328Z,3560.63
2019-03-25T16:56:55.163Z,3510.00
2019-03-25T16:58:26.998Z,3386.25
2019-03-25T16:59:58.830Z,3774.38
2019-03-25T17:01:30.665Z,2688.75
2019-03-25T17:03:02.616Z,1220.63
2019-03-25T17:04:34.331Z,1490.63
2019-03-25T17:06:06.230Z,2947.50
2019-03-25T17:07:38.036Z,3465.00
2019-03-25T17:09:10.043Z,3566.25
2019-03-25T17:10:41.659Z,3616.88
2019-03-25T17:12:13.492Z,3436.88
2019-03-25T17:13:45.455Z,1788.75
2019-03-25T17:15:17.153Z,1141.88
2019-03-25T17:16:49.051Z,2435.63
2019-03-25T17:18:20.825Z,3211.88
2019-03-25T17:19:53.066Z,2604.38
2019-03-25T17:21:24.679Z,1327.50
2019-03-25T17:22:56.367Z,2334.38
2019-03-25T17:24:28.169Z,1288.13
2019-03-25T17:26:00.007Z,1800.00
2019-03-25T17:27:31.797Z,2289.38
2019-03-25T17:29:03.847Z,2846.25
2019-03-25T17:30:35.478Z,3071.25
2019-03-25T17:32:07.279Z,1417.50
2019-03-25T17:33:39.196Z,1355.63
2019-03-25T17:35:10.934Z,1563.75
2019-03-25T17:36:43.894Z,1181.25
2019-03-25T17:38:14.623Z,1147.50
2019-03-25T17:39:46.516Z,1136.25
2019-03-25T17:41:18.745Z,1198.13
2019-03-25T17:42:50.194Z,1636.88
2019-03-25T17:44:21.935Z,1501.88
2019-03-25T17:45:53.792Z,1321.88
2019-03-25T17:47:25.545Z,1237.50
2019-03-25T17:48:57.400Z,1192.50
2019-03-25T17:50:29.529Z,1125.00
2019-03-25T17:52:01.162Z,1119.38
2019-03-25T17:53:32.847Z,1141.88
2019-03-25T17:55:04.713Z,2368.13
2019-03-25T17:56:36.591Z,1839.38
2019-03-25T17:58:08.575Z,2441.25
2019-03-25T17:59:40.279Z,1878.75
2019-03-25T18:01:12.076Z,1186.88
2019-03-25T18:02:43.852Z,1580.63
2019-03-25T18:04:15.625Z,1321.88
2019-03-25T18:05:47.450Z,990.00
2019-03-25T18:07:19.297Z,933.75
2019-03-25T18:08:51.417Z,877.50
2019-03-25T18:10:22.965Z,832.50
2019-03-25T18:11:54.751Z,838.13
2019-03-25T18:13:26.645Z,804.38
2019-03-25T18:14:58.765Z,770.63
2019-03-25T18:16:30.457Z,720.00
2019-03-25T18:18:02.052Z,669.38
2019-03-25T18:19:33.999Z,675.00
2019-03-25T18:21:05.700Z,714.38
2019-03-25T18:22:39.792Z,776.25
2019-03-25T18:24:09.368Z,832.50
2019-03-25T18:25:41.190Z,804.38
2019-03-25T18:27:13.360Z,776.25
2019-03-25T18:28:44.821Z,748.13
2019-03-25T18:30:16.751Z,731.25
2019-03-25T18:31:48.572Z,725.63
2019-03-25T18:33:20.354Z,765.00
2019-03-25T18:34:52.434Z,804.38
2019-03-25T18:36:24.180Z,1417.50
2019-03-25T18:37:55.764Z,1501.88
2019-03-25T18:39:27.642Z,1113.75
2019-03-25T18:40:59.410Z,815.63
2019-03-25T18:42:31.235Z,787.50
2019-03-25T18:44:03.065Z,725.63
2019-03-25T18:45:34.884Z,753.75
2019-03-25T18:47:06.703Z,781.88
2019-03-25T18:48:38.580Z,776.25
2019-03-25T18:50:10.424Z,748.13
2019-03-25T18:51:42.236Z,697.50
2019-03-25T18:53:14.243Z,663.75
2019-03-25T18:54:45.820Z,675.00
2019-03-25T18:56:17.643Z,810.00
2019-03-25T18:57:49.476Z,787.50
2019-03-25T18:59:21.296Z,793.13
2019-03-25T19:00:53.112Z,838.13
2019-03-25T19:02:24.953Z,1243.13
2019-03-25T19:03:56.758Z,1040.63
2019-03-25T19:05:28.587Z,1113.75
2019-03-25T19:07:00.652Z,1366.88
2019-03-25T19:08:32.229Z,945.00
2019-03-25T19:10:04.061Z,871.88
2019-03-25T19:11:36.026Z,945.00
2019-03-25T19:13:07.696Z,961.88
2019-03-25T19:14:39.520Z,652.50
2019-03-25T19:16:11.375Z,748.13
2019-03-25T19:17:43.167Z,590.63
2019-03-25T19:19:15.026Z,590.63
2019-03-25T19:20:46.811Z,590.63
2019-03-25T19:22:18.635Z,613.13
2019-03-25T19:23:50.562Z,618.75
2019-03-25T19:25:22.328Z,731.25
2019-03-25T19:26:54.175Z,855.00
2019-03-25T19:28:26.080Z,855.00
2019-03-25T19:29:58.260Z,911.25
2019-03-25T19:31:29.583Z,950.63
2019-03-25T19:33:01.554Z,973.13
2019-03-25T19:34:33.230Z,978.75
2019-03-25T19:36:05.082Z,984.38
2019-03-25T19:37:36.964Z,933.75
2019-03-25T19:39:08.710Z,916.88
2019-03-25T19:40:40.531Z,883.13
2019-03-25T19:42:12.623Z,843.75
2019-03-25T19:43:44.461Z,832.50
2019-03-25T19:45:16.046Z,821.25
2019-03-25T19:46:47.834Z,787.50
2019-03-25T19:48:19.725Z,770.63
2019-03-25T19:49:51.545Z,753.75
2019-03-25T19:51:23.423Z,720.00
2019-03-25T19:52:55.097Z,691.88
2019-03-25T19:54:26.937Z,686.25
2019-03-25T19:55:58.780Z,703.13
2019-03-25T19:57:30.750Z,697.50
2019-03-25T19:59:03.050Z,765.00
2019-03-25T20:00:34.251Z,770.63
2019-03-25T20:02:18.151Z,759.38
2019-03-25T20:03:37.983Z,973.13
2019-03-25T20:05:09.705Z,1023.75
2019-03-25T20:06:41.652Z,1096.88
2019-03-25T20:08:13.317Z,1074.38
2019-03-25T20:09:45.201Z,1012.50
2019-03-25T20:11:17.127Z,995.63
2019-03-25T20:12:48.786Z,973.13
2019-03-25T20:14:20.613Z,855.00
2019-03-25T20:15:52.484Z,810.00
2019-03-25T20:17:24.453Z,781.88
2019-03-25T20:18:56.415Z,511.88
2019-03-25T20:20:27.955Z,495.00
2019-03-25T20:21:59.746Z,466.88
2019-03-25T20:23:31.540Z,528.75
2019-03-25T20:25:03.503Z,472.50
2019-03-25T20:26:35.199Z,461.25
2019-03-25T20:28:07.076Z,421.88
2019-03-25T20:29:38.842Z,399.38
2019-03-25T20:31:11.076Z,371.25
2019-03-25T20:32:42.539Z,298.13
2019-03-25T20:34:14.334Z,213.75
2019-03-25T20:37:18.241Z,253.13
2019-03-25T20:38:49.936Z,376.88
2019-03-25T20:40:21.770Z,416.25
2019-03-25T20:41:53.413Z,421.88
2019-03-25T20:43:25.325Z,399.38
2019-03-25T20:44:57.084Z,365.63
2019-03-25T20:46:29.036Z,326.25
2019-03-25T20:48:00.681Z,281.25
2019-03-25T20:49:32.494Z,196.88